aviador You're here:

PAFS Decoded Metar

NIKOLAI in AK, USA
Report Time2017-07-26 22:15:00
UTC Time2017-07-26 22:41:02
Flight Rules vfr VFR
WindVRB at 05 kt
Visibility9999 m
Phenomena:N/A
Clouds:Few 016 Hf
Overcast 100 Hf
Expected CloudBase > 1,600 ft AGL from Temp-Dew spread
Ceiling10,000 ft
Temp17°C (ISA +3)
Dew Point13°C (77% RH)
AAT16.1°C
QNH1010 hPa
Density Alt1,050 ft
Elevation413 ft
Report Wrong Elevation
Raw Report
PAFS 262215Z AUTO VRB05KT 10SM FEW016 OVC100 17/13 A2983 RMK
AO2=

Extra information for PAFS:More info

Metar Taf Metar & Taf Last 4 Metars F.Rules Stats Wind Profile Meteogram Temp Stats Airport Information Weather charts Add Link Nearby VenuesMetar ALERT Operation Metar Decoded Social comments

AIRNAV info for PAFS